sensor_id;sensor_type;location;lat;lon;timestamp;temperature;humidity
2907;DHT22;1463;51.070;16.998;2023-10-09T00:01:51;12.20;99.90
2907;DHT22;1463;51.070;16.998;2023-10-09T00:04:18;12.30;99.90
2907;DHT22;1463;51.070;16.998;2023-10-09T00:06:46;12.30;99.90
2907;DHT22;1463;51.070;16.998;2023-10-09T00:09:14;12.30;99.90
2907;DHT22;1463;51.070;16.998;2023-10-09T00:11:45;12.30;99.90
2907;DHT22;1463;51.070;16.998;2023-10-09T00:14:14;12.30;99.90
2907;DHT22;1463;51.070;16.998;2023-10-09T00:16:41;12.20;99.90
2907;DHT22;1463;51.070;16.998;2023-10-09T00:19:13;12.20;99.90
2907;DHT22;1463;51.070;16.998;2023-10-09T00:21:43;12.20;99.90
2907;DHT22;1463;51.070;16.998;2023-10-09T00:24:10;12.20;99.90
2907;DHT22;1463;51.070;16.998;2023-10-09T00:26:40;12.20;99.90
2907;DHT22;1463;51.070;16.998;2023-10-09T00:29:13;12.20;99.90
2907;DHT22;1463;51.070;16.998;2023-10-09T00:31:48;12.20;99.90
2907;DHT22;1463;51.070;16.998;2023-10-09T00:34:21;12.20;99.90
2907;DHT22;1463;51.070;16.998;2023-10-09T00:36:51;12.20;99.90
2907;DHT22;1463;51.070;16.998;2023-10-09T00:39:22;12.20;99.90
2907;DHT22;1463;51.070;16.998;2023-10-09T00:42:06;12.20;99.90
2907;DHT22;1463;51.070;16.998;2023-10-09T00:44:35;12.20;99.90
2907;DHT22;1463;51.070;16.998;2023-10-09T00:47:06;12.20;99.90
2907;DHT22;1463;51.070;16.998;2023-10-09T00:49:47;12.20;99.90
2907;DHT22;1463;51.070;16.998;2023-10-09T00:52:15;12.20;99.90
2907;DHT22;1463;51.070;16.998;2023-10-09T00:54:54;12.10;99.90
2907;DHT22;1463;51.070;16.998;2023-10-09T00:57:28;12.20;99.90
2907;DHT22;1463;51.070;16.998;2023-10-09T00:59:59;12.10;99.90
2907;DHT22;1463;51.070;16.998;2023-10-09T01:02:40;12.10;99.90
2907;DHT22;1463;51.070;16.998;2023-10-09T01:05:10;12.10;99.90
2907;DHT22;1463;51.070;16.998;2023-10-09T01:07:45;12.10;99.90
2907;DHT22;1463;51.070;16.998;2023-10-09T01:10:13;12.10;99.90
2907;DHT22;1463;51.070;16.998;2023-10-09T01:12:42;12.10;99.90
2907;DHT22;1463;51.070;16.998;2023-10-09T01:15:15;12.10;99.90
2907;DHT22;1463;51.070;16.998;2023-10-09T01:18:02;12.10;99.90
2907;DHT22;1463;51.070;16.998;2023-10-09T01:20:30;12.10;99.90
2907;DHT22;1463;51.070;16.998;2023-10-09T01:23:09;12.00;99.90
2907;DHT22;1463;51.070;16.998;2023-10-09T01:25:36;12.00;99.90
2907;DHT22;1463;51.070;16.998;2023-10-09T01:28:09;12.00;99.90
2907;DHT22;1463;51.070;16.998;2023-10-09T01:30:37;12.00;99.90
2907;DHT22;1463;51.070;16.998;2023-10-09T01:33:07;12.00;99.90
2907;DHT22;1463;51.070;16.998;2023-10-09T01:35:50;12.00;99.90
2907;DHT22;1463;51.070;16.998;2023-10-09T01:38:25;12.00;99.90
2907;DHT22;1463;51.070;16.998;2023-10-09T01:41:07;12.00;99.90
2907;DHT22;1463;51.070;16.998;2023-10-09T01:43:36;12.00;99.90
2907;DHT22;1463;51.070;16.998;2023-10-09T01:46:04;12.00;99.90
2907;DHT22;1463;51.070;16.998;2023-10-09T01:48:31;11.90;99.90
2907;DHT22;1463;51.070;16.998;2023-10-09T01:51:04;11.90;99.90
2907;DHT22;1463;51.070;16.998;2023-10-09T01:53:35;11.90;99.90
2907;DHT22;1463;51.070;16.998;2023-10-09T01:56:09;11.80;99.90
2907;DHT22;1463;51.070;16.998;2023-10-09T01:58:41;11.80;99.90
2907;DHT22;1463;51.070;16.998;2023-10-09T02:01:12;11.80;99.90
2907;DHT22;1463;51.070;16.998;2023-10-09T02:03:39;11.80;99.90
2907;DHT22;1463;51.070;16.998;2023-10-09T02:06:08;11.80;99.90
2907;DHT22;1463;51.070;16.998;2023-10-09T02:08:52;11.80;99.90
2907;DHT22;1463;51.070;16.998;2023-10-09T02:11:20;11.70;99.90
2907;DHT22;1463;51.070;16.998;2023-10-09T02:14:03;11.80;99.90
2907;DHT22;1463;51.070;16.998;2023-10-09T02:16:41;11.70;99.90
2907;DHT22;1463;51.070;16.998;2023-10-09T02:19:08;11.70;99.90
2907;DHT22;1463;51.070;16.998;2023-10-09T02:21:54;11.70;99.90
2907;DHT22;1463;51.070;16.998;2023-10-09T02:24:23;11.70;99.90
2907;DHT22;1463;51.070;16.998;2023-10-09T02:27:13;11.70;99.90
2907;DHT22;1463;51.070;16.998;2023-10-09T02:29:45;11.70;99.90
2907;DHT22;1463;51.070;16.998;2023-10-09T02:32:12;11.60;99.90
2907;DHT22;1463;51.070;16.998;2023-10-09T02:34:43;11.60;99.90
2907;DHT22;1463;51.070;16.998;2023-10-09T02:37:12;11.70;99.90
2907;DHT22;1463;51.070;16.998;2023-10-09T02:39:40;11.60;99.90
2907;DHT22;1463;51.070;16.998;2023-10-09T02:42:14;11.60;99.90
2907;DHT22;1463;51.070;16.998;2023-10-09T02:44:49;11.60;99.90
2907;DHT22;1463;51.070;16.998;2023-10-09T02:47:17;11.50;99.90
2907;DHT22;1463;51.070;16.998;2023-10-09T02:49:46;11.60;99.90
2907;DHT22;1463;51.070;16.998;2023-10-09T02:52:16;11.50;99.90
2907;DHT22;1463;51.070;16.998;2023-10-09T02:54:46;11.60;99.90
2907;DHT22;1463;51.070;16.998;2023-10-09T02:57:13;11.60;99.90
2907;DHT22;1463;51.070;16.998;2023-10-09T02:59:47;11.50;99.90
2907;DHT22;1463;51.070;16.998;2023-10-09T03:02:17;11.60;99.90
2907;DHT22;1463;51.070;16.998;2023-10-09T03:04:46;11.60;99.90
2907;DHT22;1463;51.070;16.998;2023-10-09T03:07:12;11.50;99.90
2907;DHT22;1463;51.070;16.998;2023-10-09T03:09:42;11.50;99.90
2907;DHT22;1463;51.070;16.998;2023-10-09T03:12:10;11.60;99.90
2907;DHT22;1463;51.070;16.998;2023-10-09T03:14:39;11.60;99.90
2907;DHT22;1463;51.070;16.998;2023-10-09T03:17:07;11.50;99.90
2907;DHT22;1463;51.070;16.998;2023-10-09T03:19:37;11.60;99.90
2907;DHT22;1463;51.070;16.998;2023-10-09T03:22:08;11.60;99.90
2907;DHT22;1463;51.070;16.998;2023-10-09T03:24:35;11.60;99.90
2907;DHT22;1463;51.070;16.998;2023-10-09T03:27:03;11.60;99.90
2907;DHT22;1463;51.070;16.998;2023-10-09T03:29:31;11.60;99.90
2907;DHT22;1463;51.070;16.998;2023-10-09T03:31:59;11.50;99.90
2907;DHT22;1463;51.070;16.998;2023-10-09T03:34:26;11.50;99.90
2907;DHT22;1463;51.070;16.998;2023-10-09T03:36:53;11.50;99.90
2907;DHT22;1463;51.070;16.998;2023-10-09T03:39:29;11.50;99.90
2907;DHT22;1463;51.070;16.998;2023-10-09T03:42:06;11.50;99.90
2907;DHT22;1463;51.070;16.998;2023-10-09T03:44:38;11.50;99.90
2907;DHT22;1463;51.070;16.998;2023-10-09T03:47:08;11.50;99.90
2907;DHT22;1463;51.070;16.998;2023-10-09T03:49:37;11.50;99.90
2907;DHT22;1463;51.070;16.998;2023-10-09T03:52:04;11.50;99.90
2907;DHT22;1463;51.070;16.998;2023-10-09T03:54:32;11.50;99.90
2907;DHT22;1463;51.070;16.998;2023-10-09T03:57:00;11.50;99.90
2907;DHT22;1463;51.070;16.998;2023-10-09T03:59:28;11.50;99.90
2907;DHT22;1463;51.070;16.998;2023-10-09T04:01:59;11.50;99.90
2907;DHT22;1463;51.070;16.998;2023-10-09T04:04:26;11.50;99.90
2907;DHT22;1463;51.070;16.998;2023-10-09T04:06:54;11.50;99.90
2907;DHT22;1463;51.070;16.998;2023-10-09T04:09:21;11.40;99.90
2907;DHT22;1463;51.070;16.998;2023-10-09T04:12:01;11.40;99.90
2907;DHT22;1463;51.070;16.998;2023-10-09T04:14:46;11.40;99.90
2907;DHT22;1463;51.070;16.998;2023-10-09T04:17:21;11.40;99.90
2907;DHT22;1463;51.070;16.998;2023-10-09T04:20:01;11.40;99.90
2907;DHT22;1463;51.070;16.998;2023-10-09T04:23:00;11.40;99.90
2907;DHT22;1463;51.070;16.998;2023-10-09T04:25:31;11.30;99.90
2907;DHT22;1463;51.070;16.998;2023-10-09T04:28:10;11.30;99.90
2907;DHT22;1463;51.070;16.998;2023-10-09T04:30:45;11.30;99.90
2907;DHT22;1463;51.070;16.998;2023-10-09T04:33:20;11.30;99.90
2907;DHT22;1463;51.070;16.998;2023-10-09T04:36:02;11.40;99.90
2907;DHT22;1463;51.070;16.998;2023-10-09T04:38:46;11.30;99.90
2907;DHT22;1463;51.070;16.998;2023-10-09T04:41:21;11.30;99.90
2907;DHT22;1463;51.070;16.998;2023-10-09T04:43:54;11.30;99.90
2907;DHT22;1463;51.070;16.998;2023-10-09T04:46:29;11.30;99.90
2907;DHT22;1463;51.070;16.998;2023-10-09T04:49:10;11.30;99.90
2907;DHT22;1463;51.070;16.998;2023-10-09T04:51:54;11.30;99.90
2907;DHT22;1463;51.070;16.998;2023-10-09T04:54:31;11.30;99.90
2907;DHT22;1463;51.070;16.998;2023-10-09T04:57:25;11.30;99.90
2907;DHT22;1463;51.070;16.998;2023-10-09T04:59:52;11.20;99.90
2907;DHT22;1463;51.070;16.998;2023-10-09T05:02:20;11.20;99.90
2907;DHT22;1463;51.070;16.998;2023-10-09T05:04:50;11.20;99.90
2907;DHT22;1463;51.070;16.998;2023-10-09T05:07:37;11.20;99.90
2907;DHT22;1463;51.070;16.998;2023-10-09T05:10:18;11.20;99.90
2907;DHT22;1463;51.070;16.998;2023-10-09T05:12:50;11.10;99.90
2907;DHT22;1463;51.070;16.998;2023-10-09T05:15:22;11.10;99.90
2907;DHT22;1463;51.070;16.998;2023-10-09T05:17:52;11.20;99.90
2907;DHT22;1463;51.070;16.998;2023-10-09T05:20:23;11.20;99.90
2907;DHT22;1463;51.070;16.998;2023-10-09T05:23:07;11.20;99.90
2907;DHT22;1463;51.070;16.998;2023-10-09T05:25:52;11.20;99.90
2907;DHT22;1463;51.070;16.998;2023-10-09T05:28:27;11.20;99.90
2907;DHT22;1463;51.070;16.998;2023-10-09T05:31:14;11.20;99.90
2907;DHT22;1463;51.070;16.998;2023-10-09T05:34:01;11.10;99.90
2907;DHT22;1463;51.070;16.998;2023-10-09T05:36:33;11.10;99.90
2907;DHT22;1463;51.070;16.998;2023-10-09T05:39:01;11.10;99.90
2907;DHT22;1463;51.070;16.998;2023-10-09T05:41:43;11.00;99.90
2907;DHT22;1463;51.070;16.998;2023-10-09T05:44:18;11.00;99.90
2907;DHT22;1463;51.070;16.998;2023-10-09T05:47:02;11.00;99.90
2907;DHT22;1463;51.070;16.998;2023-10-09T05:49:47;11.00;99.90
2907;DHT22;1463;51.070;16.998;2023-10-09T05:52:22;11.00;99.90
2907;DHT22;1463;51.070;16.998;2023-10-09T05:55:08;11.00;99.90
2907;DHT22;1463;51.070;16.998;2023-10-09T05:58:14;11.00;99.90
2907;DHT22;1463;51.070;16.998;2023-10-09T06:00:58;10.90;99.90
2907;DHT22;1463;51.070;16.998;2023-10-09T06:03:52;10.90;99.90
2907;DHT22;1463;51.070;16.998;2023-10-09T06:06:21;10.90;99.90
2907;DHT22;1463;51.070;16.998;2023-10-09T06:09:05;10.90;99.90
2907;DHT22;1463;51.070;16.998;2023-10-09T06:11:50;10.90;99.90
2907;DHT22;1463;51.070;16.998;2023-10-09T06:14:22;10.90;99.90
2907;DHT22;1463;51.070;16.998;2023-10-09T06:16:51;10.80;99.90
2907;DHT22;1463;51.070;16.998;2023-10-09T06:19:48;10.80;99.90
2907;DHT22;1463;51.070;16.998;2023-10-09T06:22:14;10.80;99.90
2907;DHT22;1463;51.070;16.998;2023-10-09T06:25:18;10.70;99.90
2907;DHT22;1463;51.070;16.998;2023-10-09T06:27:44;10.70;99.90
2907;DHT22;1463;51.070;16.998;2023-10-09T06:30:27;10.70;99.90
2907;DHT22;1463;51.070;16.998;2023-10-09T06:32:54;10.70;99.90
2907;DHT22;1463;51.070;16.998;2023-10-09T06:35:45;10.60;99.90
2907;DHT22;1463;51.070;16.998;2023-10-09T06:38:19;10.60;99.90
2907;DHT22;1463;51.070;16.998;2023-10-09T06:40:50;10.60;99.90
2907;DHT22;1463;51.070;16.998;2023-10-09T06:43:35;10.60;99.90
2907;DHT22;1463;51.070;16.998;2023-10-09T06:46:15;10.60;99.90
2907;DHT22;1463;51.070;16.998;2023-10-09T06:49:09;10.60;99.90
2907;DHT22;1463;51.070;16.998;2023-10-09T06:51:54;10.50;99.90
2907;DHT22;1463;51.070;16.998;2023-10-09T06:54:39;10.40;99.90
2907;DHT22;1463;51.070;16.998;2023-10-09T06:57:16;10.50;99.90
2907;DHT22;1463;51.070;16.998;2023-10-09T07:00:05;10.50;99.90
2907;DHT22;1463;51.070;16.998;2023-10-09T07:02:49;10.50;99.90
2907;DHT22;1463;51.070;16.998;2023-10-09T07:05:16;10.50;99.90
2907;DHT22;1463;51.070;16.998;2023-10-09T07:07:43;10.50;99.90
2907;DHT22;1463;51.070;16.998;2023-10-09T07:10:23;10.50;99.90
2907;DHT22;1463;51.070;16.998;2023-10-09T07:12:59;10.50;99.90
2907;DHT22;1463;51.070;16.998;2023-10-09T07:15:27;10.50;99.90
2907;DHT22;1463;51.070;16.998;2023-10-09T07:18:12;10.40;99.90
2907;DHT22;1463;51.070;16.998;2023-10-09T07:20:51;10.50;99.90
2907;DHT22;1463;51.070;16.998;2023-10-09T07:23:27;10.50;99.90
2907;DHT22;1463;51.070;16.998;2023-10-09T07:26:02;10.50;99.90
2907;DHT22;1463;51.070;16.998;2023-10-09T07:28:45;10.50;99.90
2907;DHT22;1463;51.070;16.998;2023-10-09T07:31:18;10.40;99.90
2907;DHT22;1463;51.070;16.998;2023-10-09T07:33:52;10.40;99.90
2907;DHT22;1463;51.070;16.998;2023-10-09T07:36:23;10.50;99.90
2907;DHT22;1463;51.070;16.998;2023-10-09T07:39:00;10.50;99.90
2907;DHT22;1463;51.070;16.998;2023-10-09T07:41:33;10.50;99.90
2907;DHT22;1463;51.070;16.998;2023-10-09T07:44:05;10.40;99.90
2907;DHT22;1463;51.070;16.998;2023-10-09T07:47:00;10.30;99.90
2907;DHT22;1463;51.070;16.998;2023-10-09T07:49:42;10.30;99.90
2907;DHT22;1463;51.070;16.998;2023-10-09T07:52:15;10.40;99.90
2907;DHT22;1463;51.070;16.998;2023-10-09T07:54:42;10.30;99.90
2907;DHT22;1463;51.070;16.998;2023-10-09T07:57:16;10.30;99.90
2907;DHT22;1463;51.070;16.998;2023-10-09T07:59:44;10.30;99.90
2907;DHT22;1463;51.070;16.998;2023-10-09T08:02:29;10.20;99.90
2907;DHT22;1463;51.070;16.998;2023-10-09T08:05:00;10.30;99.90
2907;DHT22;1463;51.070;16.998;2023-10-09T08:07:44;10.20;99.90
2907;DHT22;1463;51.070;16.998;2023-10-09T08:10:22;10.40;99.90
2907;DHT22;1463;51.070;16.998;2023-10-09T08:13:06;10.40;99.90
2907;DHT22;1463;51.070;16.998;2023-10-09T08:15:59;10.40;99.90
2907;DHT22;1463;51.070;16.998;2023-10-09T08:18:29;10.40;99.90
2907;DHT22;1463;51.070;16.998;2023-10-09T08:20:57;10.30;99.90
2907;DHT22;1463;51.070;16.998;2023-10-09T08:23:43;10.30;99.90
2907;DHT22;1463;51.070;16.998;2023-10-09T08:26:15;10.30;99.90
2907;DHT22;1463;51.070;16.998;2023-10-09T08:28:54;10.30;99.90
2907;DHT22;1463;51.070;16.998;2023-10-09T08:31:42;10.40;99.90
2907;DHT22;1463;51.070;16.998;2023-10-09T08:34:11;10.40;99.90
2907;DHT22;1463;51.070;16.998;2023-10-09T08:36:49;10.30;99.90
2907;DHT22;1463;51.070;16.998;2023-10-09T08:39:18;10.40;99.90
2907;DHT22;1463;51.070;16.998;2023-10-09T08:41:51;10.40;99.90
2907;DHT22;1463;51.070;16.998;2023-10-09T08:44:19;10.40;99.90
2907;DHT22;1463;51.070;16.998;2023-10-09T08:46:49;10.40;99.90
2907;DHT22;1463;51.070;16.998;2023-10-09T08:49:17;10.40;99.90
2907;DHT22;1463;51.070;16.998;2023-10-09T08:51:44;10.30;99.90
2907;DHT22;1463;51.070;16.998;2023-10-09T08:54:12;10.30;99.90
2907;DHT22;1463;51.070;16.998;2023-10-09T08:56:41;10.30;99.90
2907;DHT22;1463;51.070;16.998;2023-10-09T08:59:15;10.30;99.90
2907;DHT22;1463;51.070;16.998;2023-10-09T09:01:44;10.40;99.90
2907;DHT22;1463;51.070;16.998;2023-10-09T09:04:34;10.30;99.90
2907;DHT22;1463;51.070;16.998;2023-10-09T09:07:00;10.30;99.90
2907;DHT22;1463;51.070;16.998;2023-10-09T09:09:27;10.30;99.90
2907;DHT22;1463;51.070;16.998;2023-10-09T09:11:57;10.30;99.90
2907;DHT22;1463;51.070;16.998;2023-10-09T09:14:35;10.40;99.90
2907;DHT22;1463;51.070;16.998;2023-10-09T09:17:03;10.30;99.90
2907;DHT22;1463;51.070;16.998;2023-10-09T09:19:33;10.30;99.90
2907;DHT22;1463;51.070;16.998;2023-10-09T09:22:04;10.40;99.90
2907;DHT22;1463;51.070;16.998;2023-10-09T09:24:39;10.40;99.90
2907;DHT22;1463;51.070;16.998;2023-10-09T09:27:11;10.40;99.90
2907;DHT22;1463;51.070;16.998;2023-10-09T09:29:44;10.40;99.90
2907;DHT22;1463;51.070;16.998;2023-10-09T09:32:26;10.40;99.90
2907;DHT22;1463;51.070;16.998;2023-10-09T09:34:56;10.40;99.90
2907;DHT22;1463;51.070;16.998;2023-10-09T09:37:27;10.30;99.90
2907;DHT22;1463;51.070;16.998;2023-10-09T09:39:57;10.30;99.90
2907;DHT22;1463;51.070;16.998;2023-10-09T09:42:27;10.30;99.90
2907;DHT22;1463;51.070;16.998;2023-10-09T09:44:59;10.30;99.90
2907;DHT22;1463;51.070;16.998;2023-10-09T09:47:27;10.30;99.90
2907;DHT22;1463;51.070;16.998;2023-10-09T09:49:57;10.30;99.90
2907;DHT22;1463;51.070;16.998;2023-10-09T09:52:28;10.20;99.90
2907;DHT22;1463;51.070;16.998;2023-10-09T09:55:04;10.20;99.90
2907;DHT22;1463;51.070;16.998;2023-10-09T09:57:33;10.30;99.90
2907;DHT22;1463;51.070;16.998;2023-10-09T10:00:06;10.30;99.90
2907;DHT22;1463;51.070;16.998;2023-10-09T10:02:54;10.30;99.90
2907;DHT22;1463;51.070;16.998;2023-10-09T10:05:26;10.20;99.90
2907;DHT22;1463;51.070;16.998;2023-10-09T10:07:56;10.30;99.90
2907;DHT22;1463;51.070;16.998;2023-10-09T10:10:35;10.30;99.90
2907;DHT22;1463;51.070;16.998;2023-10-09T10:13:04;10.30;99.90
2907;DHT22;1463;51.070;16.998;2023-10-09T10:15:59;10.20;99.90
2907;DHT22;1463;51.070;16.998;2023-10-09T10:18:53;10.10;99.90
2907;DHT22;1463;51.070;16.998;2023-10-09T10:21:23;10.20;99.90
2907;DHT22;1463;51.070;16.998;2023-10-09T10:24:04;10.20;99.90
2907;DHT22;1463;51.070;16.998;2023-10-09T10:26:32;10.30;99.90
2907;DHT22;1463;51.070;16.998;2023-10-09T10:29:16;10.20;99.90
2907;DHT22;1463;51.070;16.998;2023-10-09T10:31:55;10.30;99.90
2907;DHT22;1463;51.070;16.998;2023-10-09T10:34:24;10.30;99.90
2907;DHT22;1463;51.070;16.998;2023-10-09T10:36:53;10.30;99.90
2907;DHT22;1463;51.070;16.998;2023-10-09T10:39:25;10.30;99.90
2907;DHT22;1463;51.070;16.998;2023-10-09T10:42:09;10.30;99.90
2907;DHT22;1463;51.070;16.998;2023-10-09T10:44:40;10.30;99.90
2907;DHT22;1463;51.070;16.998;2023-10-09T10:47:11;10.30;99.90
2907;DHT22;1463;51.070;16.998;2023-10-09T10:49:53;10.30;99.90
2907;DHT22;1463;51.070;16.998;2023-10-09T10:52:26;10.30;99.90
2907;DHT22;1463;51.070;16.998;2023-10-09T10:55:11;10.40;99.90
2907;DHT22;1463;51.070;16.998;2023-10-09T10:57:44;10.40;99.90
2907;DHT22;1463;51.070;16.998;2023-10-09T11:00:26;10.30;99.90
2907;DHT22;1463;51.070;16.998;2023-10-09T11:03:17;10.40;99.90
2907;DHT22;1463;51.070;16.998;2023-10-09T11:05:46;10.40;99.90
2907;DHT22;1463;51.070;16.998;2023-10-09T11:08:23;10.30;99.90
2907;DHT22;1463;51.070;16.998;2023-10-09T11:10:52;10.30;99.90
2907;DHT22;1463;51.070;16.998;2023-10-09T11:13:26;10.30;99.90
2907;DHT22;1463;51.070;16.998;2023-10-09T11:15:58;10.30;99.90
2907;DHT22;1463;51.070;16.998;2023-10-09T11:18:40;10.30;99.90
2907;DHT22;1463;51.070;16.998;2023-10-09T11:21:13;10.30;99.90
2907;DHT22;1463;51.070;16.998;2023-10-09T11:24:00;10.30;99.90
2907;DHT22;1463;51.070;16.998;2023-10-09T11:26:49;10.30;99.90
2907;DHT22;1463;51.070;16.998;2023-10-09T11:29:21;10.40;99.90
2907;DHT22;1463;51.070;16.998;2023-10-09T11:32:19;10.40;99.90
2907;DHT22;1463;51.070;16.998;2023-10-09T11:34:49;10.50;99.90
2907;DHT22;1463;51.070;16.998;2023-10-09T11:37:19;10.50;99.90
2907;DHT22;1463;51.070;16.998;2023-10-09T11:40:06;10.40;99.90
2907;DHT22;1463;51.070;16.998;2023-10-09T11:42:49;10.50;99.90
2907;DHT22;1463;51.070;16.998;2023-10-09T11:45:20;10.40;99.90
2907;DHT22;1463;51.070;16.998;2023-10-09T11:47:50;10.50;99.90
2907;DHT22;1463;51.070;16.998;2023-10-09T11:50:38;10.40;99.90
2907;DHT22;1463;51.070;16.998;2023-10-09T11:53:08;10.50;99.90
2907;DHT22;1463;51.070;16.998;2023-10-09T11:55:36;10.50;99.90
2907;DHT22;1463;51.070;16.998;2023-10-09T11:58:04;10.40;99.90
2907;DHT22;1463;51.070;16.998;2023-10-09T12:00:32;10.50;99.90
2907;DHT22;1463;51.070;16.998;2023-10-09T12:03:10;10.40;99.90
2907;DHT22;1463;51.070;16.998;2023-10-09T12:05:40;10.40;99.90
2907;DHT22;1463;51.070;16.998;2023-10-09T12:08:11;10.40;99.90
2907;DHT22;1463;51.070;16.998;2023-10-09T12:10:42;10.50;99.90
2907;DHT22;1463;51.070;16.998;2023-10-09T12:13:09;10.50;99.90
2907;DHT22;1463;51.070;16.998;2023-10-09T12:15:37;10.50;99.90
2907;DHT22;1463;51.070;16.998;2023-10-09T12:18:05;10.50;99.90
2907;DHT22;1463;51.070;16.998;2023-10-09T12:20:34;10.50;99.90
2907;DHT22;1463;51.070;16.998;2023-10-09T12:23:02;10.60;99.90
2907;DHT22;1463;51.070;16.998;2023-10-09T12:25:32;10.60;99.90
2907;DHT22;1463;51.070;16.998;2023-10-09T12:28:03;10.60;99.90
2907;DHT22;1463;51.070;16.998;2023-10-09T12:30:30;10.60;99.90
2907;DHT22;1463;51.070;16.998;2023-10-09T12:32:57;10.70;99.90
2907;DHT22;1463;51.070;16.998;2023-10-09T12:35:24;10.70;99.90
2907;DHT22;1463;51.070;16.998;2023-10-09T12:37:52;10.70;99.90
2907;DHT22;1463;51.070;16.998;2023-10-09T12:40:20;10.70;99.90
2907;DHT22;1463;51.070;16.998;2023-10-09T12:42:51;10.70;99.90
2907;DHT22;1463;51.070;16.998;2023-10-09T12:45:22;10.70;99.90
2907;DHT22;1463;51.070;16.998;2023-10-09T12:47:53;10.80;99.90
2907;DHT22;1463;51.070;16.998;2023-10-09T12:50:20;10.80;99.90
2907;DHT22;1463;51.070;16.998;2023-10-09T12:52:54;10.80;99.90
2907;DHT22;1463;51.070;16.998;2023-10-09T12:55:21;10.80;99.90
2907;DHT22;1463;51.070;16.998;2023-10-09T12:57:59;10.90;99.90
2907;DHT22;1463;51.070;16.998;2023-10-09T13:00:28;10.90;99.90
2907;DHT22;1463;51.070;16.998;2023-10-09T13:02:58;11.00;99.90
2907;DHT22;1463;51.070;16.998;2023-10-09T13:05:26;10.90;99.90
2907;DHT22;1463;51.070;16.998;2023-10-09T13:07:53;10.90;99.90
2907;DHT22;1463;51.070;16.998;2023-10-09T13:10:23;10.90;99.90
2907;DHT22;1463;51.070;16.998;2023-10-09T13:12:50;10.90;99.90
2907;DHT22;1463;51.070;16.998;2023-10-09T13:15:21;10.90;99.90
2907;DHT22;1463;51.070;16.998;2023-10-09T13:17:49;11.00;99.90
2907;DHT22;1463;51.070;16.998;2023-10-09T13:20:18;11.00;99.90
2907;DHT22;1463;51.070;16.998;2023-10-09T13:22:47;11.00;99.90
2907;DHT22;1463;51.070;16.998;2023-10-09T13:25:14;11.00;99.90
2907;DHT22;1463;51.070;16.998;2023-10-09T13:27:44;11.00;99.90
2907;DHT22;1463;51.070;16.998;2023-10-09T13:30:17;11.00;99.90
2907;DHT22;1463;51.070;16.998;2023-10-09T13:32:50;10.90;99.90
2907;DHT22;1463;51.070;16.998;2023-10-09T13:35:18;10.90;99.90
2907;DHT22;1463;51.070;16.998;2023-10-09T13:37:45;10.90;99.90
2907;DHT22;1463;51.070;16.998;2023-10-09T13:40:20;10.90;99.90
2907;DHT22;1463;51.070;16.998;2023-10-09T13:42:53;10.90;99.90
2907;DHT22;1463;51.070;16.998;2023-10-09T13:45:25;11.00;99.90
2907;DHT22;1463;51.070;16.998;2023-10-09T13:47:57;10.90;99.90
2907;DHT22;1463;51.070;16.998;2023-10-09T13:50:24;10.90;99.90
2907;DHT22;1463;51.070;16.998;2023-10-09T13:52:55;10.90;99.90
2907;DHT22;1463;51.070;16.998;2023-10-09T13:55:24;10.90;99.90
2907;DHT22;1463;51.070;16.998;2023-10-09T13:57:57;10.90;99.90
2907;DHT22;1463;51.070;16.998;2023-10-09T14:00:27;10.90;99.90
2907;DHT22;1463;51.070;16.998;2023-10-09T14:03:01;10.90;99.90
2907;DHT22;1463;51.070;16.998;2023-10-09T14:05:36;11.00;99.90
2907;DHT22;1463;51.070;16.998;2023-10-09T14:08:18;11.00;99.90
2907;DHT22;1463;51.070;16.998;2023-10-09T14:10:47;11.00;99.90
2907;DHT22;1463;51.070;16.998;2023-10-09T14:13:14;11.00;99.90
2907;DHT22;1463;51.070;16.998;2023-10-09T14:15:42;11.00;99.90
2907;DHT22;1463;51.070;16.998;2023-10-09T14:18:10;11.00;99.90
2907;DHT22;1463;51.070;16.998;2023-10-09T14:20:37;11.00;99.90
2907;DHT22;1463;51.070;16.998;2023-10-09T14:23:07;11.00;99.90
2907;DHT22;1463;51.070;16.998;2023-10-09T14:25:36;11.00;99.90
2907;DHT22;1463;51.070;16.998;2023-10-09T14:28:05;11.10;99.90
2907;DHT22;1463;51.070;16.998;2023-10-09T14:30:34;11.10;99.90
2907;DHT22;1463;51.070;16.998;2023-10-09T14:33:09;11.10;99.90
2907;DHT22;1463;51.070;16.998;2023-10-09T14:35:39;11.20;99.90
2907;DHT22;1463;51.070;16.998;2023-10-09T14:38:09;11.10;99.90
2907;DHT22;1463;51.070;16.998;2023-10-09T14:40:41;11.10;99.90
2907;DHT22;1463;51.070;16.998;2023-10-09T14:43:08;11.10;99.90
2907;DHT22;1463;51.070;16.998;2023-10-09T14:45:44;11.10;99.90
2907;DHT22;1463;51.070;16.998;2023-10-09T14:48:15;11.10;99.90
2907;DHT22;1463;51.070;16.998;2023-10-09T14:50:47;11.10;99.90
2907;DHT22;1463;51.070;16.998;2023-10-09T14:53:14;11.10;99.90
2907;DHT22;1463;51.070;16.998;2023-10-09T14:55:41;11.20;99.90
2907;DHT22;1463;51.070;16.998;2023-10-09T14:58:13;11.20;99.90
2907;DHT22;1463;51.070;16.998;2023-10-09T15:00:41;11.20;99.90
2907;DHT22;1463;51.070;16.998;2023-10-09T15:03:12;11.20;99.90
2907;DHT22;1463;51.070;16.998;2023-10-09T15:05:41;11.20;99.90
2907;DHT22;1463;51.070;16.998;2023-10-09T15:08:09;11.20;99.90
2907;DHT22;1463;51.070;16.998;2023-10-09T15:10:43;11.30;99.90
2907;DHT22;1463;51.070;16.998;2023-10-09T15:13:11;11.20;99.90
2907;DHT22;1463;51.070;16.998;2023-10-09T15:15:40;11.20;99.90
2907;DHT22;1463;51.070;16.998;2023-10-09T15:18:07;11.20;99.90
2907;DHT22;1463;51.070;16.998;2023-10-09T15:20:37;11.20;99.90
2907;DHT22;1463;51.070;16.998;2023-10-09T15:23:06;11.20;99.90
2907;DHT22;1463;51.070;16.998;2023-10-09T15:25:34;11.20;99.90
2907;DHT22;1463;51.070;16.998;2023-10-09T15:28:05;11.30;99.90
2907;DHT22;1463;51.070;16.998;2023-10-09T15:30:33;11.20;99.90
2907;DHT22;1463;51.070;16.998;2023-10-09T15:33:00;11.20;99.90
2907;DHT22;1463;51.070;16.998;2023-10-09T15:35:27;11.30;99.90
2907;DHT22;1463;51.070;16.998;2023-10-09T15:37:55;11.30;99.90
2907;DHT22;1463;51.070;16.998;2023-10-09T15:40:23;11.20;99.90
2907;DHT22;1463;51.070;16.998;2023-10-09T15:42:50;11.20;99.90
2907;DHT22;1463;51.070;16.998;2023-10-09T15:45:21;11.20;99.90
2907;DHT22;1463;51.070;16.998;2023-10-09T15:47:49;11.20;99.90
2907;DHT22;1463;51.070;16.998;2023-10-09T15:50:17;11.30;99.90
2907;DHT22;1463;51.070;16.998;2023-10-09T15:52:47;11.20;99.90
2907;DHT22;1463;51.070;16.998;2023-10-09T15:55:17;11.20;99.90
2907;DHT22;1463;51.070;16.998;2023-10-09T15:57:47;11.20;99.90
2907;DHT22;1463;51.070;16.998;2023-10-09T16:00:14;11.20;99.90
2907;DHT22;1463;51.070;16.998;2023-10-09T16:02:43;11.20;99.90
2907;DHT22;1463;51.070;16.998;2023-10-09T16:05:13;11.20;99.90
2907;DHT22;1463;51.070;16.998;2023-10-09T16:07:42;11.20;99.90
2907;DHT22;1463;51.070;16.998;2023-10-09T16:10:10;11.20;99.90
2907;DHT22;1463;51.070;16.998;2023-10-09T16:12:38;11.20;99.90
2907;DHT22;1463;51.070;16.998;2023-10-09T16:15:07;11.20;99.90
2907;DHT22;1463;51.070;16.998;2023-10-09T16:17:34;11.20;99.90
2907;DHT22;1463;51.070;16.998;2023-10-09T16:20:03;11.20;99.90
2907;DHT22;1463;51.070;16.998;2023-10-09T16:22:39;11.20;99.90
2907;DHT22;1463;51.070;16.998;2023-10-09T16:25:06;11.20;99.90